Station: Maningrida Airport  

  Atmospheric Gas Attenuation - ITU Rec 676-11   ----------------- dB/100km -----------------
Date Time Temp RH % AH g/m3 Dew Point Wind Direction Speed kph Gust kph Barometer mB Rainfall Since 9am 24GHz 47GHz 76GHz 122GHz 134GHz 241GHz
04/09 03:20 22.7 88 17.78 20.6 9 13 1014.9 0 38.6 38.9 73.8 195.2 212.9 739.1
04/09 03:10 22.8 87 17.68 20.5 7 11 1014.9 0 38.4 38.6 73.2 193.6 211.1 732.7
04/09 03:00 23 87 17.88 20.7 7 9 1015.1 0 38.8 38.9 74.0 195.7 213.6 741.6
04/09 02:50 23.1 86 17.78 20.6 7 7 1015 0 38.5 38.7 73.4 194.1 211.8 735.2
04/09 02:40 23.4 84 17.66 20.5 7 9 1015 0 38.3 38.3 72.6 191.9 209.1 725.9
04/09 02:30 23.7 83 17.75 20.6 11 13 1015.2 0 38.4 38.4 72.7 192.3 209.7 727.9
04/09 02:20 23.8 83 17.85 20.7 11 13 1015.1 0 38.6 38.5 73.1 193.2 210.9 732.2
04/09 02:10 24 82 17.84 20.7 13 17 1015.2 0 38.6 38.4 72.9 192.6 210.2 729.8
04/09 02:00 24.2 81 17.82 20.7 13 19 1015.3 0 38.5 38.3 72.6 191.9 209.3 726.9
04/09 01:50 24.3 81 17.92 20.8 15 17 1015.3 0 38.7 38.4 72.9 192.9 210.6 731.2
04/09 01:40 24.5 81 18.13 21 17 24 1015.5 0 39.1 38.7 73.7 195.0 213.2 740.5
04/09 01:30 24.6 82 18.46 21.3 13 19 1015.8 0 39.8 39.3 75.2 198.9 218.0 757.2
04/09 01:20 24.8 82 18.66 21.5 17 20 1015.7 0 40.2 39.6 75.9 200.8 220.5 765.8
04/09 01:10 25 82 18.88 21.7 13 22 1015.8 0 40.7 39.9 76.8 203.1 223.3 775.6
04/09 01:00 25.2 81 18.86 21.7 15 24 1015.9 0 40.6 39.8 76.5 202.3 222.4 772.6
04/09 00:50 25.4 80 18.83 21.7 17 20 1015.9 0 40.5 39.6 76.2 201.4 221.4 768.9
04/09 00:40 25.5 80 18.94 21.8 17 30 1015.9 0 40.8 39.8 76.6 202.5 222.8 773.8
04/09 00:30 25.6 81 19.28 22.1 15 24 1016.1 0 41.5 40.4 78.1 206.5 227.7 791.1
04/09 00:20 25.7 81 19.39 22.2 15 24 1016 0 41.7 40.6 78.5 207.6 229.1 795.9
04/09 00:10 25.7 81 19.39 22.2 15 20 1016.1 0 41.7 40.6 78.5 207.7 229.1 795.9
04/09 00:00 25.8 81 19.5 22.3 15 22 1016.2 0 41.9 40.7 78.9 208.8 230.5 800.8
03/09 23:50 25.8 80 19.26 22.1 19 24 1016.2 0 41.4 40.3 77.8 205.8 226.8 787.9
03/09 23:40 25.8 79 19.02 21.9 17 24 1016.3 0 40.9 39.8 76.7 202.8 223.2 775.2
03/09 23:30 25.8 79 19.02 21.9 15 20 1016.3 0 40.9 39.8 76.7 202.8 223.2 775.2
03/09 23:20 25.7 79 18.91 21.8 13 19 1016.2 0 40.7 39.7 76.2 201.7 221.8 770.3
03/09 23:10 25.5 80 18.94 21.8 11 17 1016.2 0 40.8 39.8 76.6 202.6 222.8 773.9
03/09 23:00 25.4 81 19.07 21.9 11 19 1016.3 0 41.0 40.1 77.3 204.5 225.1 782.0
03/09 22:50 25.4 81 19.07 21.9 11 17 1016.1 0 41.0 40.1 77.3 204.4 225.1 781.9
03/09 22:40 25.5 81 19.18 22 11 15 1016.1 0 41.3 40.3 77.7 205.6 226.5 786.7
03/09 22:30 25.5 80 18.94 21.8 11 19 1016.2 0 40.8 39.8 76.6 202.6 222.8 773.9
03/09 22:20 25.5 80 18.94 21.8 11 17 1016.1 0 40.8 39.8 76.6 202.5 222.8 773.9
03/09 22:10 25.5 80 18.94 21.8 11 20 1016.1 0 40.8 39.8 76.6 202.5 222.8 773.9
03/09 22:00 25.5 80 18.94 21.8 13 15 1016.2 0 40.8 39.8 76.6 202.6 222.8 773.9
03/09 21:50 25.5 80 18.94 21.8 13 22 1016.1 0 40.8 39.8 76.6 202.5 222.8 773.9
03/09 21:40 25.5 81 19.18 22 13 20 1016 0 41.3 40.3 77.7 205.5 226.5 786.7
03/09 21:30 25.5 82 19.41 22.2 13 20 1016.1 0 41.8 40.7 78.8 208.5 230.0 799.1
03/09 21:20 25.5 82 19.41 22.2 11 17 1015.9 0 41.8 40.7 78.8 208.4 230.0 799.0
03/09 21:10 25.5 83 19.65 22.4 13 20 1015.8 0 42.3 41.2 79.9 211.5 233.7 811.9
03/09 21:00 25.6 82 19.52 22.3 13 19 1015.8 0 42.0 40.9 79.2 209.5 231.4 803.8
03/09 20:50 25.5 82 19.41 22.2 11 17 1015.5 0 41.8 40.7 78.8 208.4 229.9 798.8
03/09 20:40 25.4 81 19.07 21.9 11 20 1015.4 0 41.1 40.1 77.2 204.3 225.0 781.5
03/09 20:30 25.5 81 19.18 22 11 19 1015.3 0 41.3 40.2 77.7 205.4 226.4 786.3
03/09 20:20 25.4 82 19.3 22.1 9 15 1015 0 41.5 40.5 78.3 207.2 228.5 793.6
03/09 20:10 25.4 81 19.07 21.9 9 13 1014.9 0 41.1 40.1 77.2 204.3 224.9 781.2
03/09 20:00 25.4 81 19.07 21.9 9 13 1014.9 0 41.1 40.1 77.2 204.3 224.9 781.2
03/09 19:50 25.5 80 18.94 21.8 9 13 1014.8 0 40.8 39.8 76.5 202.3 222.6 773.2
03/09 19:40 25.5 80 18.94 21.8 9 11 1014.7 0 40.8 39.8 76.5 202.3 222.6 773.1
03/09 19:30 25.6 80 19.05 21.9 9 11 1014.7 0 41.0 39.9 76.9 203.4 224.0 778.0
03/09 19:20 25.6 80 19.05 21.9 9 11 1014.6 0 41.0 39.9 76.9 203.4 223.9 777.9
03/09 19:10 25.7 79 18.91 21.8 9 13 1014.5 0 40.7 39.6 76.1 201.4 221.5 769.4
03/09 19:00 25.8 79 19.02 21.9 11 15 1014.5 0 40.9 39.8 76.6 202.5 222.9 774.2
03/09 18:50 25.9 78 18.88 21.8 11 19 1014.3 0 40.6 39.4 75.8 200.5 220.4 765.7
03/09 18:40 26 77 18.75 21.7 11 17 1014.2 0 40.3 39.1 75.1 198.6 218.1 757.8
03/09 18:30 26.2 77 18.96 21.8 11 17 1014.2 0 40.7 39.4 75.9 200.6 220.7 766.8
03/09 18:20 26.2 76 18.71 21.6 13 17 1014.2 0 40.2 39.0 74.7 197.6 217.0 753.7
03/09 18:10 26.5 74 18.52 21.5 17 26 1014.1 0 39.8 38.5 73.5 194.5 213.2 740.8
03/09 18:00 26.6 72 18.12 21.1 13 20 1014.1 0 38.9 37.7 71.6 189.4 207.0 719.1
03/09 17:50 27 70 18.02 21.1 15 20 1014 0 38.7 37.3 70.8 187.2 204.4 710.2
03/09 17:40 27.1 68 17.6 20.7 19 24 1013.9 0 37.8 36.5 68.8 181.9 198.0 688.0
03/09 17:30 27.5 68 17.99 21.1 17 30 1014 0 38.6 37.1 70.2 185.6 202.6 704.1
03/09 17:20 27.7 68 18.19 21.3 17 24 1013.9 0 39.0 37.3 70.9 187.5 205.0 712.3
03/09 17:10 27.6 66 17.56 20.7 19 26 1013.8 0 37.6 36.3 68.2 180.3 196.2 681.5
03/09 17:00 27.7 65 17.39 20.5 17 26 1013.9 0 37.3 35.9 67.4 178.1 193.5 672.2
03/09 16:50 27.8 66 17.75 20.9 17 30 1013.9 0 38.0 36.5 68.8 182.0 198.4 689.2
03/09 16:40 28.5 62 17.33 20.5 17 26 1013.9 0 37.1 35.5 66.4 175.6 190.6 662.3
03/09 16:30 28.3 63 17.42 20.6 20 32 1014 0 37.3 35.7 67.0 177.1 192.4 668.5
03/09 16:20 27.9 63 17.04 20.2 20 30 1013.9 0 36.5 35.2 65.7 173.6 188.0 653.2
03/09 16:10 28.7 60 16.96 20.2 17 24 1013.9 0 36.3 34.8 64.7 170.9 184.9 642.6
03/09 16:00 29.7 58 17.31 20.5 19 28 1013.9 0 36.9 35.0 65.3 172.6 187.4 651.2
03/09 15:50 28.9 58 16.57 19.8 20 28 1013.8 0 35.5 34.0 62.8 166.1 179.1 622.2
03/09 15:40 29.3 60 17.52 20.7 19 26 1013.9 0 37.4 35.5 66.5 175.9 191.3 664.7
03/09 15:30 29.1 60 17.33 20.5 19 26 1014.2 0 37.0 35.2 65.9 174.3 189.2 657.3
03/09 15:20 29.2 61 17.72 20.9 19 28 1014.3 0 37.8 35.9 67.5 178.5 194.4 675.6
03/09 15:10 28.6 61 17.14 20.3 20 30 1014.4 0 36.7 35.1 65.5 173.2 187.8 652.4
03/09 15:00 29.1 59 17.04 20.3 19 30 1014.6 0 36.4 34.8 64.7 171.0 185.2 643.5
03/09 14:50 29.5 56 16.53 19.8 20 28 1014.6 0 35.3 33.7 62.2 164.5 177.2 615.8
03/09 14:40 29.6 58 17.21 20.5 20 28 1014.7 0 36.7 34.9 65.0 171.9 186.3 647.6
03/09 14:30 29.2 56 16.26 19.5 19 28 1014.9 0 34.8 33.4 61.4 162.2 174.3 605.6
03/09 14:20 29.5 56 16.53 19.8 17 26 1015 0 35.3 33.8 62.3 164.5 177.3 616.0
03/09 14:10 29.6 56 16.62 19.9 19 26 1015.1 0 35.5 33.9 62.6 165.3 178.3 619.5
03/09 14:00 29 57 16.37 19.6 22 32 1015.3 0 35.0 33.7 62.0 163.8 176.3 612.5
03/09 13:50 29.8 55 16.5 19.8 19 32 1015.3 0 35.2 33.6 61.9 163.6 176.2 612.4
03/09 13:40 30.4 57 17.67 20.9 22 30 1015.3 0 37.6 35.3 66.3 175.3 190.8 663.2
03/09 13:30 29.1 57 16.46 19.7 20 30 1015.5 0 35.2 33.8 62.3 164.7 177.3 616.1
03/09 13:20 29.3 57 16.64 19.9 20 30 1015.6 0 35.6 34.0 62.9 166.3 179.3 623.1
03/09 13:10 29.9 57 17.2 20.5 19 28 1015.7 0 36.7 34.8 64.8 171.2 185.6 645.0
03/09 13:00 29 59 16.95 20.2 22 32 1015.9 0 36.2 34.7 64.5 170.4 184.3 640.5
03/09 12:50 29.3 59 17.23 20.5 20 30 1015.9 0 36.8 35.1 65.4 172.9 187.5 651.6
03/09 12:40 28.9 58 16.57 19.8 20 32 1016.1 0 35.4 34.1 63.0 166.4 179.4 623.2
03/09 12:30 29.8 57 17.1 20.4 19 30 1016.3 0 36.5 34.6 64.5 170.4 184.5 641.3
03/09 12:20 29.8 56 16.8 20.1 24 30 1016.3 0 35.8 34.1 63.2 167.1 180.4 627.0
03/09 12:10 29.4 59 17.32 20.5 20 28 1016.5 0 37.0 35.2 65.7 173.8 188.6 655.4
03/09 12:00 28.9 59 16.86 20.1 17 32 1016.8 0 36.0 34.6 64.2 169.7 183.5 637.4
03/09 11:50 29.1 60 17.33 20.5 20 30 1016.7 0 37.0 35.3 66.1 174.6 189.5 658.5
03/09 11:40 29 60 17.24 20.4 19 28 1016.9 0 36.8 35.2 65.8 173.8 188.5 655.1
03/09 11:30 29.1 59 17.04 20.3 17 26 1017.1 0 36.4 34.9 64.8 171.4 185.5 644.6
03/09 11:20 28.9 60 17.14 20.4 17 24 1017.2 0 36.6 35.1 65.4 173.0 187.4 651.2
03/09 11:10 28.7 58 16.39 19.6 17 22 1017.4 0 35.1 33.9 62.4 165.0 177.5 616.7
03/09 11:00 28.3 57 15.76 19 22 32 1017.6 0 33.8 33.0 60.1 158.8 169.9 590.0
03/09 10:50 29 56 16.09 19.3 17 28 1017.7 0 34.4 33.3 61.0 161.1 172.8 600.3

Last Refresh: 04-Sep-2026 03:29:43

Bureau of Meteorology